Capricho II — 9HB4744 — position and weather

sailwx.info

Track history (hours):
 
Tides and Currents Weather Stations Pressure Air Temp Water Temp Dewpoint Dewpoint Depression Visibility Wind Speed Wind Dir Waves Ship Positions

Capricho II

Last reported at 2018-May-09 18:24 UTC. Time now 2018-Jun-22 15:06 UTC.
Position N 16°22' W 061°48'.
Warning: this ship's position is 43 days out of date.

Length 24 m.

Type: Sailing vessel. MMSI: 215000123.

Date/timePositionNaut miles runAvg speedWind from/ knotsBaromVisibWave heightAir tempDewpointWater temp
2018-May-09 18:24N 16°22' W 061°48'3 8.0
2018-May-09 18:00N 16°25' W 061°48'4 8.7
2018-May-09 17:29N 16°29' W 061°47'4 9.0
2018-May-09 16:59N 16°34' W 061°46'6 9.5
2018-May-09 16:24N 16°39' W 061°46'4 9.7
2018-May-09 16:00N 16°43' W 061°46'5 9.8
2018-May-09 15:27N 16°49' W 061°45'4 9.9
2018-May-09 15:00N 16°53' W 061°45'510.1
2018-May-09 14:30N 16°58' W 061°45'2 4.1
2018-May-09 14:00N 17°00' W 061°46'0 0.5
2018-May-09 13:29N 17°00' W 061°46'0 0.0
2018-May-09 12:59N 17°00' W 061°46'0 0.0
2018-May-09 12:29N 17°00' W 061°46'0 0.0
2018-May-09 11:59N 17°00' W 061°46'0 0.0
2018-May-09 11:29N 17°00' W 061°46'0 0.0
2018-May-09 10:59N 17°00' W 061°46'0 0.0
2018-May-09 10:29N 17°00' W 061°46'0 0.0
2018-May-09 09:59N 17°00' W 061°46'0 0.0
2018-May-09 09:29N 17°00' W 061°46'0 0.0
2018-May-09 08:59N 17°00' W 061°46'0 0.0
2018-May-09 08:29N 17°00' W 061°46'0 0.0
2018-May-09 07:59N 17°00' W 061°46'0 0.0
2018-May-09 07:28N 17°00' W 061°46'0 0.0
2018-May-09 06:58N 17°00' W 061°46'0 0.0
2018-May-09 06:28N 17°00' W 061°46'0 0.0
2018-May-09 05:58N 17°00' W 061°46'0 0.0
2018-May-09 05:28N 17°00' W 061°46'0 0.0
2018-May-09 04:58N 17°00' W 061°46'0 0.0
2018-May-09 04:28N 17°00' W 061°46'0 0.0
2018-May-09 03:58N 17°00' W 061°46'0 0.0
2018-May-09 03:28N 17°00' W 061°46'0 0.0
2018-May-09 02:58N 17°00' W 061°46'0 0.0
2018-May-09 02:28N 17°00' W 061°46'0 0.0
2018-May-09 01:58N 17°00' W 061°46'0 0.0
2018-May-09 01:28N 17°00' W 061°46'0 0.0
2018-May-09 00:58N 17°00' W 061°46'0 0.0
2018-May-09 00:28N 17°00' W 061°46'0 0.0
2018-May-08 23:58N 17°00' W 061°46'0 0.0
2018-May-08 23:28N 17°00' W 061°46'0 0.0
2018-May-08 22:58N 17°00' W 061°46'0 0.0
2018-May-08 22:28N 17°00' W 061°46'0 0.0
2018-May-08 21:58N 17°00' W 061°46'0 0.0
2018-May-08 21:28N 17°00' W 061°46'0 0.0
2018-May-08 20:58N 17°00' W 061°46'0 0.0
2018-May-08 20:28N 17°00' W 061°46'0 0.0
2018-May-08 19:58N 17°00' W 061°46'0 0.0
2018-May-08 19:28N 17°00' W 061°46'0 0.0
2018-May-08 18:58N 17°00' W 061°46'0 0.0
2018-May-08 18:28N 17°00' W 061°46'0 0.0
2018-May-08 17:58N 17°00' W 061°46'0 0.0
2018-May-08 17:28N 17°00' W 061°46'0 0.0
2018-May-08 16:55N 17°00' W 061°46'0 0.0
2018-May-08 16:28N 17°00' W 061°46'0 0.0
2018-May-08 15:58N 17°00' W 061°46'0 0.0
2018-May-08 15:28N 17°00' W 061°46'0 0.0
2018-May-08 14:58N 17°00' W 061°46'0 0.0
2018-May-08 14:28N 17°00' W 061°46'0 0.0
2018-May-08 13:58N 17°00' W 061°46'0 0.0
2018-May-08 13:28N 17°00' W 061°46'0 0.0
2018-May-08 12:58N 17°00' W 061°46'0 0.0
2018-May-08 12:28N 17°00' W 061°46'0 0.0
2018-May-08 11:58N 17°00' W 061°46'0 0.0
2018-May-08 11:28N 17°00' W 061°46'0 0.0
2018-May-08 10:58N 17°00' W 061°46'0 0.0
2018-May-08 10:28N 17°00' W 061°46'0 0.0
2018-May-08 09:58N 17°00' W 061°46'0 0.0
2018-May-08 09:28N 17°00' W 061°46'0 0.0
2018-May-08 08:58N 17°00' W 061°46'0 0.0
2018-May-08 08:28N 17°00' W 061°46'0 0.0
2018-May-08 07:58N 17°00' W 061°46'0 0.0
2018-May-08 07:28N 17°00' W 061°46'0 0.0
2018-May-08 06:58N 17°00' W 061°46'0 0.0
2018-May-08 06:28N 17°00' W 061°46'0 0.0
2018-May-08 05:58N 17°00' W 061°46'0 0.0
2018-May-08 05:28N 17°00' W 061°46'0 0.0
2018-May-08 04:58N 17°00' W 061°46'0 0.0
2018-May-08 04:28N 17°00' W 061°46'0 0.0
2018-May-08 03:58N 17°00' W 061°46'0 0.0
2018-May-08 03:25N 17°00' W 061°46'0 0.0
2018-May-08 02:58N 17°00' W 061°46'0 0.0
2018-May-08 02:28N 17°00' W 061°46'0 0.0
2018-May-08 01:58N 17°00' W 061°46'0 0.0
2018-May-08 01:28N 17°00' W 061°46'0 0.0
2018-May-08 00:58N 17°00' W 061°46'0 0.0
2018-May-08 00:28N 17°00' W 061°46'0 0.0
2018-May-07 23:58N 17°00' W 061°46'0 0.0
2018-May-07 23:28N 17°00' W 061°46'0 0.0
2018-May-07 22:58N 17°00' W 061°46'0 0.0
2018-May-07 22:28N 17°00' W 061°46'0 0.0
2018-May-07 21:58N 17°00' W 061°46'0 0.0
2018-May-07 21:28N 17°00' W 061°46'0 0.0
2018-May-07 20:58N 17°00' W 061°46'0 0.0
2018-May-07 20:28N 17°00' W 061°46'0 0.0
2018-May-07 19:58N 17°00' W 061°46'0 0.0
2018-May-07 19:28N 17°00' W 061°46'0 0.0
2018-May-07 18:58N 17°00' W 061°46'0 0.0
2018-May-07 18:28N 17°00' W 061°46'0 0.0
2018-May-07 17:55N 17°00' W 061°46'1 1.7
2018-May-07 17:30N 16°60' W 061°46'3 6.1
2018-May-07 17:00N 16°60' W 061°49'3 5.5
2018-May-07 16:29N 17°00' W 061°52'3 5.4
2018-May-07 15:51N 17°01' W 061°56'3 7.7
2018-May-07 15:30N 17°04' W 061°57'5 8.6
2018-May-07 14:59N 17°01' W 062°00'4 8.5
2018-May-07 14:30N 16°58' W 062°04'10 8.1
2018-May-07 13:17N 16°51' W 062°11'2 6.2
2018-May-07 13:00N 16°50' W 062°12'1 0.1
2018-May-06 21:11N 16°49' W 062°13'2 9.8
2018-May-06 21:00N 16°51' W 062°14'90 3.4
2018-May-05 18:40N 18°06' W 063°05'1 3.2
2018-May-05 18:30N 18°05' W 063°06'1 0.1
2018-May-05 02:40N 18°04' W 063°06'0 0.0
2018-May-05 02:22N 18°04' W 063°06'0 0.0
2018-May-05 01:55N 18°04' W 063°06'0 0.0
2018-May-05 01:22N 18°04' W 063°06'0 0.0
2018-May-05 00:56N 18°04' W 063°06'0 0.2
2018-May-05 00:23N 18°04' W 063°06'2 5.2
2018-May-04 23:59N 18°06' W 063°07'3 6.3
2018-May-04 23:29N 18°07' W 063°10'3 6.1
2018-May-04 23:00N 18°09' W 063°13'3 5.8
2018-May-04 22:31N 18°10' W 063°16'3 5.9
2018-May-04 21:58N 18°11' W 063°19'  
Track history (hours):
 
Tides and Currents Weather Stations Pressure Air Temp Water Temp Dewpoint Dewpoint Depression Visibility Wind Speed Wind Dir Waves Ship Positions

Capricho II

Last reported at 2018-May-09 18:24 UTC. Time now 2018-Jun-22 15:06 UTC.
Position N 16°22' W 061°48'.
Warning: this ship's position is 43 days out of date.

Length 24 m.

Type: Sailing vessel. MMSI: 215000123.

Date/timePositionNaut miles runAvg speedWind from/ knotsBaromVisibWave heightAir tempDewpointWater temp
2018-May-09 18:24N 16°22' W 061°48'3 8.0
2018-May-09 18:00N 16°25' W 061°48'4 8.7
2018-May-09 17:29N 16°29' W 061°47'4 9.0
2018-May-09 16:59N 16°34' W 061°46'6 9.5
2018-May-09 16:24N 16°39' W 061°46'4 9.7
2018-May-09 16:00N 16°43' W 061°46'5 9.8
2018-May-09 15:27N 16°49' W 061°45'4 9.9
2018-May-09 15:00N 16°53' W 061°45'510.1
2018-May-09 14:30N 16°58' W 061°45'2 4.1
2018-May-09 14:00N 17°00' W 061°46'0 0.5
2018-May-09 13:29N 17°00' W 061°46'0 0.0
2018-May-09 12:59N 17°00' W 061°46'0 0.0
2018-May-09 12:29N 17°00' W 061°46'0 0.0
2018-May-09 11:59N 17°00' W 061°46'0 0.0
2018-May-09 11:29N 17°00' W 061°46'0 0.0
2018-May-09 10:59N 17°00' W 061°46'0 0.0
2018-May-09 10:29N 17°00' W 061°46'0 0.0
2018-May-09 09:59N 17°00' W 061°46'0 0.0
2018-May-09 09:29N 17°00' W 061°46'0 0.0
2018-May-09 08:59N 17°00' W 061°46'0 0.0
2018-May-09 08:29N 17°00' W 061°46'0 0.0
2018-May-09 07:59N 17°00' W 061°46'0 0.0
2018-May-09 07:28N 17°00' W 061°46'0 0.0
2018-May-09 06:58N 17°00' W 061°46'0 0.0
2018-May-09 06:28N 17°00' W 061°46'0 0.0
2018-May-09 05:58N 17°00' W 061°46'0 0.0
2018-May-09 05:28N 17°00' W 061°46'0 0.0
2018-May-09 04:58N 17°00' W 061°46'0 0.0
2018-May-09 04:28N 17°00' W 061°46'0 0.0
2018-May-09 03:58N 17°00' W 061°46'0 0.0
2018-May-09 03:28N 17°00' W 061°46'0 0.0
2018-May-09 02:58N 17°00' W 061°46'0 0.0
2018-May-09 02:28N 17°00' W 061°46'0 0.0
2018-May-09 01:58N 17°00' W 061°46'0 0.0
2018-May-09 01:28N 17°00' W 061°46'0 0.0
2018-May-09 00:58N 17°00' W 061°46'0 0.0
2018-May-09 00:28N 17°00' W 061°46'0 0.0
2018-May-08 23:58N 17°00' W 061°46'0 0.0
2018-May-08 23:28N 17°00' W 061°46'0 0.0
2018-May-08 22:58N 17°00' W 061°46'0 0.0
2018-May-08 22:28N 17°00' W 061°46'0 0.0
2018-May-08 21:58N 17°00' W 061°46'0 0.0
2018-May-08 21:28N 17°00' W 061°46'0 0.0
2018-May-08 20:58N 17°00' W 061°46'0 0.0
2018-May-08 20:28N 17°00' W 061°46'0 0.0
2018-May-08 19:58N 17°00' W 061°46'0 0.0
2018-May-08 19:28N 17°00' W 061°46'0 0.0
2018-May-08 18:58N 17°00' W 061°46'0 0.0
2018-May-08 18:28N 17°00' W 061°46'0 0.0
2018-May-08 17:58N 17°00' W 061°46'0 0.0
2018-May-08 17:28N 17°00' W 061°46'0 0.0
2018-May-08 16:55N 17°00' W 061°46'0 0.0
2018-May-08 16:28N 17°00' W 061°46'0 0.0
2018-May-08 15:58N 17°00' W 061°46'0 0.0
2018-May-08 15:28N 17°00' W 061°46'0 0.0
2018-May-08 14:58N 17°00' W 061°46'0 0.0
2018-May-08 14:28N 17°00' W 061°46'0 0.0
2018-May-08 13:58N 17°00' W 061°46'0 0.0
2018-May-08 13:28N 17°00' W 061°46'0 0.0
2018-May-08 12:58N 17°00' W 061°46'0 0.0
2018-May-08 12:28N 17°00' W 061°46'0 0.0
2018-May-08 11:58N 17°00' W 061°46'0 0.0
2018-May-08 11:28N 17°00' W 061°46'0 0.0
2018-May-08 10:58N 17°00' W 061°46'0 0.0
2018-May-08 10:28N 17°00' W 061°46'0 0.0
2018-May-08 09:58N 17°00' W 061°46'0 0.0
2018-May-08 09:28N 17°00' W 061°46'0 0.0
2018-May-08 08:58N 17°00' W 061°46'0 0.0
2018-May-08 08:28N 17°00' W 061°46'0 0.0
2018-May-08 07:58N 17°00' W 061°46'0 0.0
2018-May-08 07:28N 17°00' W 061°46'0 0.0
2018-May-08 06:58N 17°00' W 061°46'0 0.0
2018-May-08 06:28N 17°00' W 061°46'0 0.0
2018-May-08 05:58N 17°00' W 061°46'0 0.0
2018-May-08 05:28N 17°00' W 061°46'0 0.0
2018-May-08 04:58N 17°00' W 061°46'0 0.0
2018-May-08 04:28N 17°00' W 061°46'0 0.0
2018-May-08 03:58N 17°00' W 061°46'0 0.0
2018-May-08 03:25N 17°00' W 061°46'0 0.0
2018-May-08 02:58N 17°00' W 061°46'0 0.0
2018-May-08 02:28N 17°00' W 061°46'0 0.0
2018-May-08 01:58N 17°00' W 061°46'0 0.0
2018-May-08 01:28N 17°00' W 061°46'0 0.0
2018-May-08 00:58N 17°00' W 061°46'0 0.0
2018-May-08 00:28N 17°00' W 061°46'0 0.0
2018-May-07 23:58N 17°00' W 061°46'0 0.0
2018-May-07 23:28N 17°00' W 061°46'0 0.0
2018-May-07 22:58N 17°00' W 061°46'0 0.0
2018-May-07 22:28N 17°00' W 061°46'0 0.0
2018-May-07 21:58N 17°00' W 061°46'0 0.0
2018-May-07 21:28N 17°00' W 061°46'0 0.0
2018-May-07 20:58N 17°00' W 061°46'0 0.0
2018-May-07 20:28N 17°00' W 061°46'0 0.0
2018-May-07 19:58N 17°00' W 061°46'0 0.0
2018-May-07 19:28N 17°00' W 061°46'0 0.0
2018-May-07 18:58N 17°00' W 061°46'0 0.0
2018-May-07 18:28N 17°00' W 061°46'0 0.0
2018-May-07 17:55N 17°00' W 061°46'1 1.7
2018-May-07 17:30N 16°60' W 061°46'3 6.1
2018-May-07 17:00N 16°60' W 061°49'3 5.5
2018-May-07 16:29N 17°00' W 061°52'3 5.4
2018-May-07 15:51N 17°01' W 061°56'3 7.7
2018-May-07 15:30N 17°04' W 061°57'5 8.6
2018-May-07 14:59N 17°01' W 062°00'4 8.5
2018-May-07 14:30N 16°58' W 062°04'10 8.1
2018-May-07 13:17N 16°51' W 062°11'2 6.2
2018-May-07 13:00N 16°50' W 062°12'1 0.1
2018-May-06 21:11N 16°49' W 062°13'2 9.8
2018-May-06 21:00N 16°51' W 062°14'90 3.4
2018-May-05 18:40N 18°06' W 063°05'1 3.2
2018-May-05 18:30N 18°05' W 063°06'1 0.1
2018-May-05 02:40N 18°04' W 063°06'0 0.0
2018-May-05 02:22N 18°04' W 063°06'0 0.0
2018-May-05 01:55N 18°04' W 063°06'0 0.0
2018-May-05 01:22N 18°04' W 063°06'0 0.0
2018-May-05 00:56N 18°04' W 063°06'0 0.2
2018-May-05 00:23N 18°04' W 063°06'2 5.2
2018-May-04 23:59N 18°06' W 063°07'3 6.3
2018-May-04 23:29N 18°07' W 063°10'3 6.1
2018-May-04 23:00N 18°09' W 063°13'3 5.8
2018-May-04 22:31N 18°10' W 063°16'3 5.9
2018-May-04 21:58N 18°11' W 063°19'  

Dump ship's entire track history